sensor_id;sensor_type;location;lat;lon;timestamp;temperature;humidity
13052;DHT22;6592;47.484;9.726;2023-04-05T00:01:12;1.90;99.90
13052;DHT22;6592;47.484;9.726;2023-04-05T00:03:41;1.90;99.90
13052;DHT22;6592;47.484;9.726;2023-04-05T00:06:11;1.90;99.90
13052;DHT22;6592;47.484;9.726;2023-04-05T00:08:42;1.90;99.90
13052;DHT22;6592;47.484;9.726;2023-04-05T00:11:16;1.80;99.90
13052;DHT22;6592;47.484;9.726;2023-04-05T00:13:44;1.80;99.90
13052;DHT22;6592;47.484;9.726;2023-04-05T00:16:13;1.70;99.90
13052;DHT22;6592;47.484;9.726;2023-04-05T00:18:42;1.70;99.90
13052;DHT22;6592;47.484;9.726;2023-04-05T00:21:17;1.70;99.90
13052;DHT22;6592;47.484;9.726;2023-04-05T00:23:47;1.80;99.90
13052;DHT22;6592;47.484;9.726;2023-04-05T00:26:17;1.80;99.90
13052;DHT22;6592;47.484;9.726;2023-04-05T00:28:46;1.70;99.90
13052;DHT22;6592;47.484;9.726;2023-04-05T00:31:14;1.80;99.90
13052;DHT22;6592;47.484;9.726;2023-04-05T00:33:43;1.80;99.90
13052;DHT22;6592;47.484;9.726;2023-04-05T00:36:12;1.70;99.90
13052;DHT22;6592;47.484;9.726;2023-04-05T00:38:43;1.80;99.90
13052;DHT22;6592;47.484;9.726;2023-04-05T00:41:12;1.70;99.90
13052;DHT22;6592;47.484;9.726;2023-04-05T00:43:41;1.80;99.90
13052;DHT22;6592;47.484;9.726;2023-04-05T00:46:09;1.90;99.90
13052;DHT22;6592;47.484;9.726;2023-04-05T00:48:38;1.80;99.90
13052;DHT22;6592;47.484;9.726;2023-04-05T00:51:06;1.80;99.90
13052;DHT22;6592;47.484;9.726;2023-04-05T00:53:37;1.90;99.90
13052;DHT22;6592;47.484;9.726;2023-04-05T00:56:08;1.80;99.90
13052;DHT22;6592;47.484;9.726;2023-04-05T00:58:39;1.80;99.90
13052;DHT22;6592;47.484;9.726;2023-04-05T01:01:12;1.80;99.90
13052;DHT22;6592;47.484;9.726;2023-04-05T01:03:45;1.80;99.90
13052;DHT22;6592;47.484;9.726;2023-04-05T01:06:26;1.80;99.90
13052;DHT22;6592;47.484;9.726;2023-04-05T01:09:04;1.60;99.90
13052;DHT22;6592;47.484;9.726;2023-04-05T01:11:38;1.60;99.90
13052;DHT22;6592;47.484;9.726;2023-04-05T01:14:07;1.60;99.90
13052;DHT22;6592;47.484;9.726;2023-04-05T01:16:35;1.60;99.90
13052;DHT22;6592;47.484;9.726;2023-04-05T01:19:03;1.60;99.90
13052;DHT22;6592;47.484;9.726;2023-04-05T01:22:07;1.40;99.90
13052;DHT22;6592;47.484;9.726;2023-04-05T01:25:09;1.40;99.90
13052;DHT22;6592;47.484;9.726;2023-04-05T01:28:02;1.30;99.90
13052;DHT22;6592;47.484;9.726;2023-04-05T01:30:39;1.50;99.90
13052;DHT22;6592;47.484;9.726;2023-04-05T01:33:13;1.40;99.90
13052;DHT22;6592;47.484;9.726;2023-04-05T01:35:48;1.40;99.90
13052;DHT22;6592;47.484;9.726;2023-04-05T01:38:22;1.40;99.90
13052;DHT22;6592;47.484;9.726;2023-04-05T01:40:52;1.30;99.90
13052;DHT22;6592;47.484;9.726;2023-04-05T01:43:20;1.30;99.90
13052;DHT22;6592;47.484;9.726;2023-04-05T01:45:50;1.40;99.90
13052;DHT22;6592;47.484;9.726;2023-04-05T01:48:18;1.30;99.90
13052;DHT22;6592;47.484;9.726;2023-04-05T01:50:46;1.30;99.90
13052;DHT22;6592;47.484;9.726;2023-04-05T01:53:15;1.30;99.90
13052;DHT22;6592;47.484;9.726;2023-04-05T01:55:43;1.30;99.90
13052;DHT22;6592;47.484;9.726;2023-04-05T01:58:12;1.30;99.90
13052;DHT22;6592;47.484;9.726;2023-04-05T02:00:40;1.20;99.90
13052;DHT22;6592;47.484;9.726;2023-04-05T02:03:10;1.20;99.90
13052;DHT22;6592;47.484;9.726;2023-04-05T02:05:39;1.20;99.90
13052;DHT22;6592;47.484;9.726;2023-04-05T02:08:07;1.20;99.90
13052;DHT22;6592;47.484;9.726;2023-04-05T02:10:35;1.30;99.90
13052;DHT22;6592;47.484;9.726;2023-04-05T02:13:04;1.30;99.90
13052;DHT22;6592;47.484;9.726;2023-04-05T02:15:32;1.10;99.90
13052;DHT22;6592;47.484;9.726;2023-04-05T02:18:00;1.10;99.90
13052;DHT22;6592;47.484;9.726;2023-04-05T02:20:30;1.10;99.90
13052;DHT22;6592;47.484;9.726;2023-04-05T02:22:59;1.10;99.90
13052;DHT22;6592;47.484;9.726;2023-04-05T02:25:28;1.10;99.90
13052;DHT22;6592;47.484;9.726;2023-04-05T02:27:56;1.00;99.90
13052;DHT22;6592;47.484;9.726;2023-04-05T02:30:24;1.00;99.90
13052;DHT22;6592;47.484;9.726;2023-04-05T02:32:54;1.00;99.90
13052;DHT22;6592;47.484;9.726;2023-04-05T02:35:23;1.00;99.90
13052;DHT22;6592;47.484;9.726;2023-04-05T02:37:53;0.90;99.90
13052;DHT22;6592;47.484;9.726;2023-04-05T02:40:22;1.10;99.90
13052;DHT22;6592;47.484;9.726;2023-04-05T02:42:51;0.90;99.90
13052;DHT22;6592;47.484;9.726;2023-04-05T02:45:19;0.90;99.90
13052;DHT22;6592;47.484;9.726;2023-04-05T02:47:47;0.90;99.90
13052;DHT22;6592;47.484;9.726;2023-04-05T02:50:16;0.80;99.90
13052;DHT22;6592;47.484;9.726;2023-04-05T02:52:46;0.80;99.90
13052;DHT22;6592;47.484;9.726;2023-04-05T02:55:16;0.80;99.90
13052;DHT22;6592;47.484;9.726;2023-04-05T02:57:44;0.80;99.90
13052;DHT22;6592;47.484;9.726;2023-04-05T03:00:14;0.80;99.90
13052;DHT22;6592;47.484;9.726;2023-04-05T03:02:42;0.70;99.90
13052;DHT22;6592;47.484;9.726;2023-04-05T03:05:10;0.60;99.90
13052;DHT22;6592;47.484;9.726;2023-04-05T03:07:39;0.70;99.90
13052;DHT22;6592;47.484;9.726;2023-04-05T03:10:10;0.70;99.90
13052;DHT22;6592;47.484;9.726;2023-04-05T03:12:40;0.60;99.90
13052;DHT22;6592;47.484;9.726;2023-04-05T03:15:09;0.60;99.90
13052;DHT22;6592;47.484;9.726;2023-04-05T03:17:38;0.60;99.90
13052;DHT22;6592;47.484;9.726;2023-04-05T03:20:11;0.50;99.90
13052;DHT22;6592;47.484;9.726;2023-04-05T03:22:39;0.50;99.90
13052;DHT22;6592;47.484;9.726;2023-04-05T03:25:08;0.30;99.90
13052;DHT22;6592;47.484;9.726;2023-04-05T03:27:37;0.40;99.90
13052;DHT22;6592;47.484;9.726;2023-04-05T03:30:08;0.40;99.90
13052;DHT22;6592;47.484;9.726;2023-04-05T03:32:36;0.40;99.90
13052;DHT22;6592;47.484;9.726;2023-04-05T03:35:05;0.30;99.90
13052;DHT22;6592;47.484;9.726;2023-04-05T03:37:33;0.30;99.90
13052;DHT22;6592;47.484;9.726;2023-04-05T03:40:01;0.30;99.90
13052;DHT22;6592;47.484;9.726;2023-04-05T03:42:32;0.40;99.90
13052;DHT22;6592;47.484;9.726;2023-04-05T03:45:00;0.20;99.90
13052;DHT22;6592;47.484;9.726;2023-04-05T03:47:30;0.10;99.90
13052;DHT22;6592;47.484;9.726;2023-04-05T03:49:58;0.20;99.90
13052;DHT22;6592;47.484;9.726;2023-04-05T03:52:28;0.20;99.90
13052;DHT22;6592;47.484;9.726;2023-04-05T03:54:56;0.10;99.90
13052;DHT22;6592;47.484;9.726;2023-04-05T03:57:25;0.10;99.90
13052;DHT22;6592;47.484;9.726;2023-04-05T03:59:54;0.10;99.90
13052;DHT22;6592;47.484;9.726;2023-04-05T04:02:23;0.10;99.90
13052;DHT22;6592;47.484;9.726;2023-04-05T04:04:53;0.20;99.90
13052;DHT22;6592;47.484;9.726;2023-04-05T04:07:21;0.00;99.90
13052;DHT22;6592;47.484;9.726;2023-04-05T04:09:49;0.00;99.90
13052;DHT22;6592;47.484;9.726;2023-04-05T04:12:17;0.00;99.90
13052;DHT22;6592;47.484;9.726;2023-04-05T04:14:46;-0.10;99.90
13052;DHT22;6592;47.484;9.726;2023-04-05T04:17:25;-0.10;99.90
13052;DHT22;6592;47.484;9.726;2023-04-05T04:19:55;-0.10;99.90
13052;DHT22;6592;47.484;9.726;2023-04-05T04:22:25;-0.10;99.90
13052;DHT22;6592;47.484;9.726;2023-04-05T04:24:59;-0.10;99.90
13052;DHT22;6592;47.484;9.726;2023-04-05T04:27:30;-0.10;99.90
13052;DHT22;6592;47.484;9.726;2023-04-05T04:29:58;-0.10;99.90
13052;DHT22;6592;47.484;9.726;2023-04-05T04:32:29;0.00;99.90
13052;DHT22;6592;47.484;9.726;2023-04-05T04:35:14;-0.10;99.90
13052;DHT22;6592;47.484;9.726;2023-04-05T04:37:45;0.00;99.90
13052;DHT22;6592;47.484;9.726;2023-04-05T04:40:14;-0.10;99.90
13052;DHT22;6592;47.484;9.726;2023-04-05T04:42:43;-0.10;99.90
13052;DHT22;6592;47.484;9.726;2023-04-05T04:45:12;-0.20;99.90
13052;DHT22;6592;47.484;9.726;2023-04-05T04:47:43;-0.20;99.90
13052;DHT22;6592;47.484;9.726;2023-04-05T04:50:13;-0.20;99.90
13052;DHT22;6592;47.484;9.726;2023-04-05T04:52:42;-0.20;99.90
13052;DHT22;6592;47.484;9.726;2023-04-05T04:55:10;-0.20;99.90
13052;DHT22;6592;47.484;9.726;2023-04-05T04:57:40;-0.20;99.90
13052;DHT22;6592;47.484;9.726;2023-04-05T05:00:09;-0.20;99.90
13052;DHT22;6592;47.484;9.726;2023-04-05T05:02:40;-0.10;99.90
13052;DHT22;6592;47.484;9.726;2023-04-05T05:05:10;-0.20;99.90
13052;DHT22;6592;47.484;9.726;2023-04-05T05:07:40;-0.20;99.90
13052;DHT22;6592;47.484;9.726;2023-04-05T05:10:09;-0.20;99.90
13052;DHT22;6592;47.484;9.726;2023-04-05T05:12:38;-0.20;99.90
13052;DHT22;6592;47.484;9.726;2023-04-05T05:15:07;-0.20;99.90
13052;DHT22;6592;47.484;9.726;2023-04-05T05:17:35;-0.20;99.90
13052;DHT22;6592;47.484;9.726;2023-04-05T05:20:06;-0.20;99.90
13052;DHT22;6592;47.484;9.726;2023-04-05T05:22:36;-0.20;99.90
13052;DHT22;6592;47.484;9.726;2023-04-05T05:25:07;-0.10;99.90
13052;DHT22;6592;47.484;9.726;2023-04-05T05:27:38;-0.10;99.90
13052;DHT22;6592;47.484;9.726;2023-04-05T05:30:07;0.00;99.90
13052;DHT22;6592;47.484;9.726;2023-04-05T05:32:35;0.00;99.90
13052;DHT22;6592;47.484;9.726;2023-04-05T05:35:06;0.10;99.90
13052;DHT22;6592;47.484;9.726;2023-04-05T05:37:35;0.20;99.90
13052;DHT22;6592;47.484;9.726;2023-04-05T05:40:04;0.30;99.90
13052;DHT22;6592;47.484;9.726;2023-04-05T05:42:34;0.40;99.90
13052;DHT22;6592;47.484;9.726;2023-04-05T05:45:04;0.50;99.90
13052;DHT22;6592;47.484;9.726;2023-04-05T05:47:32;0.60;99.90
13052;DHT22;6592;47.484;9.726;2023-04-05T05:50:01;0.70;99.90
13052;DHT22;6592;47.484;9.726;2023-04-05T05:52:30;0.90;99.90
13052;DHT22;6592;47.484;9.726;2023-04-05T05:54:58;0.90;99.90
13052;DHT22;6592;47.484;9.726;2023-04-05T05:57:27;1.00;99.90
13052;DHT22;6592;47.484;9.726;2023-04-05T05:59:56;1.10;99.90
13052;DHT22;6592;47.484;9.726;2023-04-05T06:02:24;1.40;99.90
13052;DHT22;6592;47.484;9.726;2023-04-05T06:04:53;2.00;99.90
13052;DHT22;6592;47.484;9.726;2023-04-05T06:07:22;2.70;99.90
13052;DHT22;6592;47.484;9.726;2023-04-05T06:09:50;3.40;99.90
13052;DHT22;6592;47.484;9.726;2023-04-05T06:12:20;4.10;99.90
13052;DHT22;6592;47.484;9.726;2023-04-05T06:14:48;5.00;99.90
13052;DHT22;6592;47.484;9.726;2023-04-05T06:17:18;5.80;99.90
13052;DHT22;6592;47.484;9.726;2023-04-05T06:19:46;6.30;99.90
13052;DHT22;6592;47.484;9.726;2023-04-05T06:22:15;6.90;99.90
13052;DHT22;6592;47.484;9.726;2023-04-05T06:24:44;7.50;99.90
13052;DHT22;6592;47.484;9.726;2023-04-05T06:27:12;8.30;99.90
13052;DHT22;6592;47.484;9.726;2023-04-05T06:29:41;9.20;99.90
13052;DHT22;6592;47.484;9.726;2023-04-05T06:32:09;9.80;99.90
13052;DHT22;6592;47.484;9.726;2023-04-05T06:34:39;10.60;99.90
13052;DHT22;6592;47.484;9.726;2023-04-05T06:37:07;11.40;99.90
13052;DHT22;6592;47.484;9.726;2023-04-05T06:39:35;12.10;99.20
13052;DHT22;6592;47.484;9.726;2023-04-05T06:42:03;12.60;96.40
13052;DHT22;6592;47.484;9.726;2023-04-05T06:44:31;13.20;94.90
13052;DHT22;6592;47.484;9.726;2023-04-05T06:47:00;13.80;92.50
13052;DHT22;6592;47.484;9.726;2023-04-05T06:49:28;14.30;90.90
13052;DHT22;6592;47.484;9.726;2023-04-05T06:51:57;14.80;85.40
13052;DHT22;6592;47.484;9.726;2023-04-05T06:54:25;14.80;83.20
13052;DHT22;6592;47.484;9.726;2023-04-05T06:56:54;15.20;81.20
13052;DHT22;6592;47.484;9.726;2023-04-05T06:59:23;15.50;78.70
13052;DHT22;6592;47.484;9.726;2023-04-05T07:01:52;16.00;75.70
13052;DHT22;6592;47.484;9.726;2023-04-05T07:04:20;16.60;72.50
13052;DHT22;6592;47.484;9.726;2023-04-05T07:06:48;16.90;70.90
13052;DHT22;6592;47.484;9.726;2023-04-05T07:09:18;17.40;70.00
13052;DHT22;6592;47.484;9.726;2023-04-05T07:11:48;17.50;66.40
13052;DHT22;6592;47.484;9.726;2023-04-05T07:14:16;17.80;66.90
13052;DHT22;6592;47.484;9.726;2023-04-05T07:16:44;18.10;65.90
13052;DHT22;6592;47.484;9.726;2023-04-05T07:19:14;18.10;63.20
13052;DHT22;6592;47.484;9.726;2023-04-05T07:21:42;18.20;62.70
13052;DHT22;6592;47.484;9.726;2023-04-05T07:24:10;18.40;59.90
13052;DHT22;6592;47.484;9.726;2023-04-05T07:26:40;18.10;59.90
13052;DHT22;6592;47.484;9.726;2023-04-05T07:29:09;18.00;59.30
13052;DHT22;6592;47.484;9.726;2023-04-05T07:31:37;18.80;59.50
13052;DHT22;6592;47.484;9.726;2023-04-05T07:34:06;19.40;58.60
13052;DHT22;6592;47.484;9.726;2023-04-05T07:36:34;19.50;56.70
13052;DHT22;6592;47.484;9.726;2023-04-05T07:39:03;20.00;56.80
13052;DHT22;6592;47.484;9.726;2023-04-05T07:41:31;20.30;55.10
13052;DHT22;6592;47.484;9.726;2023-04-05T07:44:02;20.20;55.30
13052;DHT22;6592;47.484;9.726;2023-04-05T07:46:31;20.70;54.30
13052;DHT22;6592;47.484;9.726;2023-04-05T07:48:59;20.80;53.70
13052;DHT22;6592;47.484;9.726;2023-04-05T07:51:27;21.40;52.90
13052;DHT22;6592;47.484;9.726;2023-04-05T07:53:55;21.10;51.50
13052;DHT22;6592;47.484;9.726;2023-04-05T07:56:26;20.90;52.90
13052;DHT22;6592;47.484;9.726;2023-04-05T07:58:54;21.50;52.90
13052;DHT22;6592;47.484;9.726;2023-04-05T08:01:24;21.80;52.40
13052;DHT22;6592;47.484;9.726;2023-04-05T08:03:54;22.00;50.80
13052;DHT22;6592;47.484;9.726;2023-04-05T08:06:23;22.00;50.40
13052;DHT22;6592;47.484;9.726;2023-04-05T08:08:52;22.50;50.30
13052;DHT22;6592;47.484;9.726;2023-04-05T08:11:21;22.20;50.10
13052;DHT22;6592;47.484;9.726;2023-04-05T08:13:49;22.40;49.20
13052;DHT22;6592;47.484;9.726;2023-04-05T08:16:19;22.80;48.30
13052;DHT22;6592;47.484;9.726;2023-04-05T08:18:49;23.00;48.80
13052;DHT22;6592;47.484;9.726;2023-04-05T08:21:17;23.00;46.60
13052;DHT22;6592;47.484;9.726;2023-04-05T08:23:45;23.20;47.30
13052;DHT22;6592;47.484;9.726;2023-04-05T08:26:13;23.10;46.40
13052;DHT22;6592;47.484;9.726;2023-04-05T08:28:41;22.70;45.10
13052;DHT22;6592;47.484;9.726;2023-04-05T08:31:10;22.60;45.40
13052;DHT22;6592;47.484;9.726;2023-04-05T08:33:39;22.50;47.50
13052;DHT22;6592;47.484;9.726;2023-04-05T08:36:09;21.80;48.00
13052;DHT22;6592;47.484;9.726;2023-04-05T08:38:38;22.10;47.30
13052;DHT22;6592;47.484;9.726;2023-04-05T08:41:07;22.00;45.40
13052;DHT22;6592;47.484;9.726;2023-04-05T08:43:46;22.10;46.10
13052;DHT22;6592;47.484;9.726;2023-04-05T08:46:16;22.40;45.60
13052;DHT22;6592;47.484;9.726;2023-04-05T08:48:46;22.00;44.20
13052;DHT22;6592;47.484;9.726;2023-04-05T08:51:19;22.50;44.00
13052;DHT22;6592;47.484;9.726;2023-04-05T08:53:48;22.80;44.00
13052;DHT22;6592;47.484;9.726;2023-04-05T08:56:19;23.20;43.00
13052;DHT22;6592;47.484;9.726;2023-04-05T08:58:56;23.00;44.60
13052;DHT22;6592;47.484;9.726;2023-04-05T09:01:28;23.60;45.30
13052;DHT22;6592;47.484;9.726;2023-04-05T09:03:56;23.60;42.80
13052;DHT22;6592;47.484;9.726;2023-04-05T09:06:27;23.40;43.20
13052;DHT22;6592;47.484;9.726;2023-04-05T09:08:56;23.60;41.70
13052;DHT22;6592;47.484;9.726;2023-04-05T09:11:25;23.30;41.10
13052;DHT22;6592;47.484;9.726;2023-04-05T09:13:53;23.50;41.70
13052;DHT22;6592;47.484;9.726;2023-04-05T09:16:22;23.80;42.30
13052;DHT22;6592;47.484;9.726;2023-04-05T09:18:51;23.80;43.20
13052;DHT22;6592;47.484;9.726;2023-04-05T09:21:20;23.20;44.20
13052;DHT22;6592;47.484;9.726;2023-04-05T09:23:53;23.20;44.00
13052;DHT22;6592;47.484;9.726;2023-04-05T09:26:23;23.50;43.60
13052;DHT22;6592;47.484;9.726;2023-04-05T09:28:52;23.80;43.30
13052;DHT22;6592;47.484;9.726;2023-04-05T09:31:31;23.40;43.60
13052;DHT22;6592;47.484;9.726;2023-04-05T09:34:02;23.40;42.70
13052;DHT22;6592;47.484;9.726;2023-04-05T09:36:33;23.50;43.30
13052;DHT22;6592;47.484;9.726;2023-04-05T09:39:07;23.40;42.90
13052;DHT22;6592;47.484;9.726;2023-04-05T09:41:35;23.30;43.30
13052;DHT22;6592;47.484;9.726;2023-04-05T09:44:05;23.10;43.50
13052;DHT22;6592;47.484;9.726;2023-04-05T09:46:34;23.40;44.20
13052;DHT22;6592;47.484;9.726;2023-04-05T09:49:04;24.10;43.50
13052;DHT22;6592;47.484;9.726;2023-04-05T09:51:36;24.40;42.40
13052;DHT22;6592;47.484;9.726;2023-04-05T09:54:07;24.40;42.20
13052;DHT22;6592;47.484;9.726;2023-04-05T09:56:37;24.30;42.40
13052;DHT22;6592;47.484;9.726;2023-04-05T09:59:07;24.50;43.50
13052;DHT22;6592;47.484;9.726;2023-04-05T10:01:37;24.30;41.40
13052;DHT22;6592;47.484;9.726;2023-04-05T10:04:07;24.60;42.90
13052;DHT22;6592;47.484;9.726;2023-04-05T10:06:37;24.70;42.20
13052;DHT22;6592;47.484;9.726;2023-04-05T10:09:08;24.70;42.70
13052;DHT22;6592;47.484;9.726;2023-04-05T10:11:37;24.20;43.80
13052;DHT22;6592;47.484;9.726;2023-04-05T10:14:07;23.90;43.40
13052;DHT22;6592;47.484;9.726;2023-04-05T10:16:37;23.90;43.90
13052;DHT22;6592;47.484;9.726;2023-04-05T10:19:15;24.40;43.40
13052;DHT22;6592;47.484;9.726;2023-04-05T10:21:46;24.40;42.70
13052;DHT22;6592;47.484;9.726;2023-04-05T10:24:21;24.40;41.20
13052;DHT22;6592;47.484;9.726;2023-04-05T10:27:03;24.30;40.70
13052;DHT22;6592;47.484;9.726;2023-04-05T10:29:40;24.00;40.30
13052;DHT22;6592;47.484;9.726;2023-04-05T10:32:16;23.60;40.90
13052;DHT22;6592;47.484;9.726;2023-04-05T10:34:53;24.30;39.00
13052;DHT22;6592;47.484;9.726;2023-04-05T10:40:16;24.70;41.30
13052;DHT22;6592;47.484;9.726;2023-04-05T10:42:48;25.00;38.70
13052;DHT22;6592;47.484;9.726;2023-04-05T10:45:17;25.40;38.40
13052;DHT22;6592;47.484;9.726;2023-04-05T10:47:53;25.40;38.00
13052;DHT22;6592;47.484;9.726;2023-04-05T10:50:22;25.40;37.60
13052;DHT22;6592;47.484;9.726;2023-04-05T10:52:51;25.70;39.10
13052;DHT22;6592;47.484;9.726;2023-04-05T10:55:21;25.80;36.70
13052;DHT22;6592;47.484;9.726;2023-04-05T10:57:50;25.80;36.40
13052;DHT22;6592;47.484;9.726;2023-04-05T11:00:19;25.70;37.30
13052;DHT22;6592;47.484;9.726;2023-04-05T11:02:53;26.10;37.90
13052;DHT22;6592;47.484;9.726;2023-04-05T11:05:40;26.20;36.30
13052;DHT22;6592;47.484;9.726;2023-04-05T11:08:10;25.30;36.40
13052;DHT22;6592;47.484;9.726;2023-04-05T11:10:41;25.40;38.20
13052;DHT22;6592;47.484;9.726;2023-04-05T11:13:10;23.40;37.30
13052;DHT22;6592;47.484;9.726;2023-04-05T11:15:38;23.00;38.50
13052;DHT22;6592;47.484;9.726;2023-04-05T11:18:11;23.40;39.60
13052;DHT22;6592;47.484;9.726;2023-04-05T11:20:40;23.60;39.00
13052;DHT22;6592;47.484;9.726;2023-04-05T11:23:10;24.20;36.80
13052;DHT22;6592;47.484;9.726;2023-04-05T11:25:40;24.60;38.60
13052;DHT22;6592;47.484;9.726;2023-04-05T11:28:22;25.20;38.30
13052;DHT22;6592;47.484;9.726;2023-04-05T11:30:51;25.30;39.40
13052;DHT22;6592;47.484;9.726;2023-04-05T11:33:36;25.30;37.60
13052;DHT22;6592;47.484;9.726;2023-04-05T11:36:05;25.30;37.40
13052;DHT22;6592;47.484;9.726;2023-04-05T11:38:33;24.40;35.40
13052;DHT22;6592;47.484;9.726;2023-04-05T11:41:11;24.30;38.30
13052;DHT22;6592;47.484;9.726;2023-04-05T11:43:43;24.50;39.30
13052;DHT22;6592;47.484;9.726;2023-04-05T11:46:13;24.50;40.30
13052;DHT22;6592;47.484;9.726;2023-04-05T11:48:42;24.60;39.80
13052;DHT22;6592;47.484;9.726;2023-04-05T11:51:10;24.40;40.10
13052;DHT22;6592;47.484;9.726;2023-04-05T11:53:38;24.60;38.70
13052;DHT22;6592;47.484;9.726;2023-04-05T11:56:09;24.80;38.40
13052;DHT22;6592;47.484;9.726;2023-04-05T11:58:39;24.50;37.30
13052;DHT22;6592;47.484;9.726;2023-04-05T12:01:08;24.50;39.80
13052;DHT22;6592;47.484;9.726;2023-04-05T12:03:36;24.60;37.60
13052;DHT22;6592;47.484;9.726;2023-04-05T12:06:05;24.90;39.00
13052;DHT22;6592;47.484;9.726;2023-04-05T12:08:38;24.80;37.80
13052;DHT22;6592;47.484;9.726;2023-04-05T12:11:10;24.40;37.80
13052;DHT22;6592;47.484;9.726;2023-04-05T12:13:39;24.60;38.20
13052;DHT22;6592;47.484;9.726;2023-04-05T12:16:08;24.50;38.50
13052;DHT22;6592;47.484;9.726;2023-04-05T12:18:36;24.40;38.20
13052;DHT22;6592;47.484;9.726;2023-04-05T12:21:07;24.40;39.90
13052;DHT22;6592;47.484;9.726;2023-04-05T12:23:35;24.70;38.30
13052;DHT22;6592;47.484;9.726;2023-04-05T12:26:06;24.40;39.80
13052;DHT22;6592;47.484;9.726;2023-04-05T12:28:52;24.00;40.60
13052;DHT22;6592;47.484;9.726;2023-04-05T12:31:37;24.10;40.80
13052;DHT22;6592;47.484;9.726;2023-04-05T12:34:06;24.10;37.40
13052;DHT22;6592;47.484;9.726;2023-04-05T12:36:35;24.30;38.60
13052;DHT22;6592;47.484;9.726;2023-04-05T12:39:06;24.50;38.30
13052;DHT22;6592;47.484;9.726;2023-04-05T12:41:35;24.10;34.20
13052;DHT22;6592;47.484;9.726;2023-04-05T12:44:10;23.10;38.60
13052;DHT22;6592;47.484;9.726;2023-04-05T12:46:39;23.10;37.70
13052;DHT22;6592;47.484;9.726;2023-04-05T12:49:10;23.40;38.20
13052;DHT22;6592;47.484;9.726;2023-04-05T12:51:40;22.90;38.20
13052;DHT22;6592;47.484;9.726;2023-04-05T12:54:10;23.10;37.40
13052;DHT22;6592;47.484;9.726;2023-04-05T12:56:38;23.20;34.90
13052;DHT22;6592;47.484;9.726;2023-04-05T12:59:08;22.80;37.00
13052;DHT22;6592;47.484;9.726;2023-04-05T13:01:37;23.30;37.50
13052;DHT22;6592;47.484;9.726;2023-04-05T13:04:05;23.70;37.30
13052;DHT22;6592;47.484;9.726;2023-04-05T13:06:42;23.90;36.30
13052;DHT22;6592;47.484;9.726;2023-04-05T13:09:13;23.90;38.00
13052;DHT22;6592;47.484;9.726;2023-04-05T13:11:42;23.70;36.30
13052;DHT22;6592;47.484;9.726;2023-04-05T13:14:11;23.70;38.60
13052;DHT22;6592;47.484;9.726;2023-04-05T13:16:39;23.30;36.00
13052;DHT22;6592;47.484;9.726;2023-04-05T13:19:08;22.90;35.10
13052;DHT22;6592;47.484;9.726;2023-04-05T13:21:36;22.90;35.70
13052;DHT22;6592;47.484;9.726;2023-04-05T13:24:04;23.10;38.20
13052;DHT22;6592;47.484;9.726;2023-04-05T13:26:32;23.40;38.20
13052;DHT22;6592;47.484;9.726;2023-04-05T13:29:01;23.60;37.90
13052;DHT22;6592;47.484;9.726;2023-04-05T13:31:31;23.50;33.60
13052;DHT22;6592;47.484;9.726;2023-04-05T13:34:01;23.40;31.90
13052;DHT22;6592;47.484;9.726;2023-04-05T13:36:30;22.70;37.30
13052;DHT22;6592;47.484;9.726;2023-04-05T13:38:58;22.70;38.10
13052;DHT22;6592;47.484;9.726;2023-04-05T13:41:27;22.40;38.00
13052;DHT22;6592;47.484;9.726;2023-04-05T13:43:55;22.60;38.20
13052;DHT22;6592;47.484;9.726;2023-04-05T13:46:26;23.00;38.80
13052;DHT22;6592;47.484;9.726;2023-04-05T13:48:55;23.60;37.20
13052;DHT22;6592;47.484;9.726;2023-04-05T13:51:24;24.30;36.40
13052;DHT22;6592;47.484;9.726;2023-04-05T13:53:57;24.60;36.50
13052;DHT22;6592;47.484;9.726;2023-04-05T13:56:25;24.90;36.00
13052;DHT22;6592;47.484;9.726;2023-04-05T13:58:53;25.20;36.20
13052;DHT22;6592;47.484;9.726;2023-04-05T14:01:21;25.40;36.10
13052;DHT22;6592;47.484;9.726;2023-04-05T14:03:50;25.50;35.90
13052;DHT22;6592;47.484;9.726;2023-04-05T14:06:20;25.80;36.40
13052;DHT22;6592;47.484;9.726;2023-04-05T14:08:48;25.80;35.90
13052;DHT22;6592;47.484;9.726;2023-04-05T14:11:20;25.80;35.70
13052;DHT22;6592;47.484;9.726;2023-04-05T14:13:49;25.70;35.60
13052;DHT22;6592;47.484;9.726;2023-04-05T14:16:18;25.10;35.80
13052;DHT22;6592;47.484;9.726;2023-04-05T14:18:46;24.70;35.10
13052;DHT22;6592;47.484;9.726;2023-04-05T14:21:15;24.50;36.40
13052;DHT22;6592;47.484;9.726;2023-04-05T14:23:45;24.40;36.30
13052;DHT22;6592;47.484;9.726;2023-04-05T14:26:16;24.60;34.20
13052;DHT22;6592;47.484;9.726;2023-04-05T14:28:44;24.20;34.40
13052;DHT22;6592;47.484;9.726;2023-04-05T14:31:12;24.20;34.20
13052;DHT22;6592;47.484;9.726;2023-04-05T14:33:41;23.80;35.10
13052;DHT22;6592;47.484;9.726;2023-04-05T14:36:09;23.60;35.90
13052;DHT22;6592;47.484;9.726;2023-04-05T14:38:37;23.50;35.50
13052;DHT22;6592;47.484;9.726;2023-04-05T14:41:07;23.60;35.10
13052;DHT22;6592;47.484;9.726;2023-04-05T14:43:36;23.80;35.40
13052;DHT22;6592;47.484;9.726;2023-04-05T14:46:05;23.80;35.50
13052;DHT22;6592;47.484;9.726;2023-04-05T14:48:33;23.80;34.50
13052;DHT22;6592;47.484;9.726;2023-04-05T14:51:03;23.50;36.30
13052;DHT22;6592;47.484;9.726;2023-04-05T14:53:32;23.40;35.70
13052;DHT22;6592;47.484;9.726;2023-04-05T14:56:00;23.50;35.00
13052;DHT22;6592;47.484;9.726;2023-04-05T14:58:30;22.80;34.20
13052;DHT22;6592;47.484;9.726;2023-04-05T15:01:00;22.50;34.80
13052;DHT22;6592;47.484;9.726;2023-04-05T15:03:28;22.70;36.10
13052;DHT22;6592;47.484;9.726;2023-04-05T15:05:57;22.50;35.00
13052;DHT22;6592;47.484;9.726;2023-04-05T15:08:25;22.40;36.90
13052;DHT22;6592;47.484;9.726;2023-04-05T15:10:54;21.90;36.80
13052;DHT22;6592;47.484;9.726;2023-04-05T15:13:22;22.00;36.70
13052;DHT22;6592;47.484;9.726;2023-04-05T15:15:54;21.90;37.40
13052;DHT22;6592;47.484;9.726;2023-04-05T15:18:22;22.30;35.80
13052;DHT22;6592;47.484;9.726;2023-04-05T15:20:50;22.20;34.60
13052;DHT22;6592;47.484;9.726;2023-04-05T15:23:19;22.20;32.20
13052;DHT22;6592;47.484;9.726;2023-04-05T15:25:47;21.50;33.50
13052;DHT22;6592;47.484;9.726;2023-04-05T15:28:16;20.90;35.70
13052;DHT22;6592;47.484;9.726;2023-04-05T15:30:44;20.40;36.10
13052;DHT22;6592;47.484;9.726;2023-04-05T15:33:15;19.70;34.60
13052;DHT22;6592;47.484;9.726;2023-04-05T15:35:44;18.60;35.70
13052;DHT22;6592;47.484;9.726;2023-04-05T15:38:12;17.40;39.10
13052;DHT22;6592;47.484;9.726;2023-04-05T15:40:40;17.00;40.20
13052;DHT22;6592;47.484;9.726;2023-04-05T15:43:09;16.50;41.10
13052;DHT22;6592;47.484;9.726;2023-04-05T15:45:38;16.00;41.60
13052;DHT22;6592;47.484;9.726;2023-04-05T15:48:06;15.70;43.50
13052;DHT22;6592;47.484;9.726;2023-04-05T15:50:36;15.60;45.10
13052;DHT22;6592;47.484;9.726;2023-04-05T15:53:05;15.40;45.40
13052;DHT22;6592;47.484;9.726;2023-04-05T15:55:33;15.10;46.50
13052;DHT22;6592;47.484;9.726;2023-04-05T15:58:02;14.90;46.10
13052;DHT22;6592;47.484;9.726;2023-04-05T16:00:30;14.60;46.00
13052;DHT22;6592;47.484;9.726;2023-04-05T16:02:59;14.30;46.50
13052;DHT22;6592;47.484;9.726;2023-04-05T16:05:28;14.10;46.00
13052;DHT22;6592;47.484;9.726;2023-04-05T16:07:58;13.70;45.70
13052;DHT22;6592;47.484;9.726;2023-04-05T16:10:26;13.50;46.10
13052;DHT22;6592;47.484;9.726;2023-04-05T16:12:54;13.20;46.70